Time,TemperatureF,DewpointF,PressureIn,WindDirection,WindDirectionDegrees,WindSpeedMPH,WindSpeedGustMPH,Humidity,HourlyPrecipIn,Conditions,Clouds,dailyrainin,SoftwareType,DateUTC
2013-08-09 00:02:00,65.2,64.0,29.96,ENE,72,0.0,0.0,96,0.00,,,0.00,WeatherDisplay:10.37,2013-08-09 05:02:00,
2013-08-09 00:08:00,65.2,64.0,29.97,ENE,72,0.0,0.0,96,0.00,,,0.00,WeatherDisplay:10.37,2013-08-09 05:08:00,
2013-08-09 00:13:00,65.3,64.1,29.97,ENE,72,0.0,0.0,96,0.00,,,0.00,WeatherDisplay:10.37,2013-08-09 05:13:00,
2013-08-09 00:18:00,65.3,64.1,29.96,ENE,72,0.0,0.0,96,0.00,,,0.00,WeatherDisplay:10.37,2013-08-09 05:18:00,
2013-08-09 00:23:00,65.3,64.1,29.96,ENE,72,0.0,0.0,96,0.00,,,0.00,WeatherDisplay:10.37,2013-08-09 05:23:00,
2013-08-09 00:28:00,65.1,63.9,29.97,ENE,72,0.0,0.0,96,0.00,,,0.00,WeatherDisplay:10.37,2013-08-09 05:28:00,
2013-08-09 00:33:00,65.3,64.4,29.96,ENE,72,0.0,0.0,97,0.00,,,0.00,WeatherDisplay:10.37,2013-08-09 05:33:00,
2013-08-09 00:38:00,65.4,64.5,29.97,ENE,72,0.0,0.0,97,0.00,,,0.00,WeatherDisplay:10.37,2013-08-09 05:38:00,
2013-08-09 00:43:00,65.5,64.6,29.97,ENE,72,0.0,0.0,97,0.00,,,0.00,WeatherDisplay:10.37,2013-08-09 05:43:00,
2013-08-09 00:48:00,65.5,64.6,29.97,ENE,72,0.0,0.0,97,0.00,,,0.00,WeatherDisplay:10.37,2013-08-09 05:48:00,
2013-08-09 00:54:00,65.3,64.1,29.97,ENE,72,0.0,0.0,96,0.00,,,0.00,WeatherDisplay:10.37,2013-08-09 05:54:00,
2013-08-09 00:59:00,64.9,63.7,29.96,ENE,72,0.0,0.0,96,0.00,,,0.00,WeatherDisplay:10.37,2013-08-09 05:59:00,
2013-08-09 01:04:00,64.6,63.4,29.96,ENE,72,0.0,0.0,96,0.00,,,0.00,WeatherDisplay:10.37,2013-08-09 06:04:00,
2013-08-09 01:09:00,64.3,63.1,29.96,ENE,72,0.0,0.0,96,0.00,,,0.00,WeatherDisplay:10.37,2013-08-09 06:09:00,
2013-08-09 01:14:00,64.1,62.9,29.96,ENE,72,0.0,0.0,96,0.00,,,0.00,WeatherDisplay:10.37,2013-08-09 06:14:00,
2013-08-09 01:19:00,63.9,62.7,29.96,ENE,72,0.0,0.0,96,0.00,,,0.00,WeatherDisplay:10.37,2013-08-09 06:19:00,
2013-08-09 01:24:00,63.8,62.9,29.96,ENE,72,0.0,0.0,97,0.00,,,0.00,WeatherDisplay:10.37,2013-08-09 06:24:00,
2013-08-09 01:30:00,63.8,62.9,29.96,ENE,72,0.0,0.0,97,0.00,,,0.00,WeatherDisplay:10.37,2013-08-09 06:30:00,
2013-08-09 01:35:00,63.6,62.4,29.96,ENE,72,0.0,0.0,96,0.00,,,0.00,WeatherDisplay:10.37,2013-08-09 06:35:00,
2013-08-09 01:40:00,63.3,62.1,29.96,ENE,72,0.0,0.0,96,0.00,,,0.00,WeatherDisplay:10.37,2013-08-09 06:40:00,
2013-08-09 01:45:00,63.3,62.4,29.96,ENE,72,0.0,0.0,97,0.00,,,0.00,WeatherDisplay:10.37,2013-08-09 06:45:00,
2013-08-09 01:50:00,63.1,62.3,29.96,ENE,72,0.0,0.0,97,0.00,,,0.00,WeatherDisplay:10.37,2013-08-09 06:50:00,
2013-08-09 01:55:00,62.8,61.9,29.96,ENE,72,0.0,0.0,97,0.00,,,0.00,WeatherDisplay:10.37,2013-08-09 06:55:00,
2013-08-09 02:00:00,62.6,61.7,29.96,ENE,72,0.0,0.0,97,0.00,,,0.00,WeatherDisplay:10.37,2013-08-09 07:00:00,
2013-08-09 02:05:00,62.4,61.5,29.96,ENE,72,0.0,0.0,97,0.00,,,0.00,WeatherDisplay:10.37,2013-08-09 07:05:00,
2013-08-09 02:11:00,62.4,61.5,29.96,ENE,72,0.0,0.0,97,0.00,,,0.00,WeatherDisplay:10.37,2013-08-09 07:11:00,
2013-08-09 02:16:00,62.4,61.5,29.96,ENE,72,0.0,0.0,97,0.00,,,0.00,WeatherDisplay:10.37,2013-08-09 07:16:00,
2013-08-09 02:21:00,63.0,62.4,29.96,ENE,72,0.0,0.0,98,0.00,,,0.00,WeatherDisplay:10.37,2013-08-09 07:21:00,
2013-08-09 02:26:00,63.3,62.7,29.96,ENE,72,0.0,0.0,98,0.00,,,0.00,WeatherDisplay:10.37,2013-08-09 07:26:00,
2013-08-09 02:31:00,63.4,62.8,29.96,ENE,72,0.0,0.0,98,0.00,,,0.00,WeatherDisplay:10.37,2013-08-09 07:31:00,
2013-08-09 02:36:00,63.1,62.2,29.96,ENE,72,0.0,0.0,97,0.00,,,0.00,WeatherDisplay:10.37,2013-08-09 07:36:00,
2013-08-09 02:41:00,62.6,61.7,29.96,ENE,72,0.0,0.0,97,0.00,,,0.00,WeatherDisplay:10.37,2013-08-09 07:41:00,
2013-08-09 02:46:00,62.2,61.3,29.95,ENE,72,0.0,0.0,97,0.00,,,0.00,WeatherDisplay:10.37,2013-08-09 07:46:00,
2013-08-09 02:51:00,61.9,61.0,29.95,ENE,72,0.0,0.0,97,0.00,,,0.00,WeatherDisplay:10.37,2013-08-09 07:51:00,
2013-08-09 02:56:00,61.6,60.7,29.95,ENE,72,0.0,0.0,97,0.00,,,0.00,WeatherDisplay:10.37,2013-08-09 07:56:00,
2013-08-09 03:01:00,61.5,60.6,29.96,ENE,72,0.0,0.0,97,0.00,,,0.00,WeatherDisplay:10.37,2013-08-09 08:01:00,
2013-08-09 03:07:00,61.4,60.8,29.95,ENE,72,0.0,0.0,98,0.00,,,0.00,WeatherDisplay:10.37,2013-08-09 08:07:00,
2013-08-09 03:12:00,61.4,60.5,29.95,ENE,72,0.0,0.0,97,0.00,,,0.00,WeatherDisplay:10.37,2013-08-09 08:12:00,
2013-08-09 03:18:00,61.2,60.3,29.95,ENE,72,0.0,0.0,97,0.00,,,0.00,WeatherDisplay:10.37,2013-08-09 08:18:00,
2013-08-09 03:24:00,61.4,60.8,29.95,ENE,72,0.0,0.0,98,0.00,,,0.00,WeatherDisplay:10.37,2013-08-09 08:24:00,
2013-08-09 03:29:00,61.6,61.0,29.95,ENE,72,0.0,0.0,98,0.00,,,0.00,WeatherDisplay:10.37,2013-08-09 08:29:00,
2013-08-09 03:35:00,61.4,60.8,29.96,ENE,72,0.0,0.0,98,0.00,,,0.00,WeatherDisplay:10.37,2013-08-09 08:35:00,
2013-08-09 03:40:00,61.0,60.1,29.96,ENE,72,0.0,0.0,97,0.00,,,0.00,WeatherDisplay:10.37,2013-08-09 08:40:00,
2013-08-09 03:45:00,60.9,60.0,29.95,ENE,72,0.0,0.0,97,0.00,,,0.00,WeatherDisplay:10.37,2013-08-09 08:45:00,
2013-08-09 03:51:00,61.2,60.6,29.95,ENE,72,0.0,0.0,98,0.00,,,0.00,WeatherDisplay:10.37,2013-08-09 08:51:00,
2013-08-09 03:57:00,61.1,60.5,29.95,ENE,72,0.0,0.0,98,0.00,,,0.00,WeatherDisplay:10.37,2013-08-09 08:57:00,
2013-08-09 04:02:00,60.9,60.0,29.95,ENE,72,0.0,0.0,97,0.00,,,0.00,WeatherDisplay:10.37,2013-08-09 09:02:00,
2013-08-09 04:07:00,60.7,59.8,29.95,ENE,72,0.0,0.0,97,0.00,,,0.00,WeatherDisplay:10.37,2013-08-09 09:07:00,
2013-08-09 04:12:00,60.4,59.5,29.95,ENE,72,0.0,0.0,97,0.00,,,0.00,WeatherDisplay:10.37,2013-08-09 09:12:00,
2013-08-09 04:17:00,60.2,59.3,29.96,ENE,72,0.0,0.0,97,0.00,,,0.00,WeatherDisplay:10.37,2013-08-09 09:17:00,
2013-08-09 04:22:00,60.2,59.6,29.96,ENE,72,0.0,0.0,98,0.00,,,0.00,WeatherDisplay:10.37,2013-08-09 09:22:00,
2013-08-09 04:27:00,60.0,59.4,29.95,ENE,72,0.0,0.0,98,0.00,,,0.00,WeatherDisplay:10.37,2013-08-09 09:27:00,
2013-08-09 04:33:00,60.3,59.7,29.95,ENE,72,0.0,0.0,98,0.00,,,0.00,WeatherDisplay:10.37,2013-08-09 09:33:00,
2013-08-09 04:38:00,60.4,59.8,29.96,ENE,72,0.0,0.0,98,0.00,,,0.00,WeatherDisplay:10.37,2013-08-09 09:38:00,
2013-08-09 04:43:00,60.4,59.8,29.96,ENE,72,0.0,0.0,98,0.00,,,0.00,WeatherDisplay:10.37,2013-08-09 09:43:00,
2013-08-09 04:48:00,60.4,59.8,29.95,ENE,72,0.0,0.0,98,0.00,,,0.00,WeatherDisplay:10.37,2013-08-09 09:48:00,
2013-08-09 04:54:00,60.3,59.7,29.95,ENE,72,0.0,0.0,98,0.00,,,0.00,WeatherDisplay:10.37,2013-08-09 09:54:00,
2013-08-09 04:59:00,59.7,58.8,29.95,ENE,72,0.0,0.0,97,0.00,,,0.00,WeatherDisplay:10.37,2013-08-09 09:59:00,
2013-08-09 05:09:00,59.6,59.0,29.95,ENE,72,0.0,0.0,98,0.00,,,0.00,WeatherDisplay:10.37,2013-08-09 10:09:00,
2013-08-09 05:14:00,59.7,59.1,29.96,ENE,72,0.0,0.0,98,0.00,,,0.00,WeatherDisplay:10.37,2013-08-09 10:14:00,
2013-08-09 05:19:00,59.8,59.2,29.96,ENE,72,0.0,0.0,98,0.00,,,0.00,WeatherDisplay:10.37,2013-08-09 10:19:00,
2013-08-09 05:24:00,59.7,59.1,29.96,ENE,72,0.0,0.0,98,0.00,,,0.00,WeatherDisplay:10.37,2013-08-09 10:24:00,
2013-08-09 05:29:00,60.0,59.4,29.97,North,356,0.0,0.0,98,0.00,,,0.00,WeatherDisplay:10.37,2013-08-09 10:29:00,
2013-08-09 05:34:00,59.9,59.3,29.97,NW,309,0.0,0.0,98,0.00,,,0.00,WeatherDisplay:10.37,2013-08-09 10:34:00,
2013-08-09 05:39:00,60.3,59.7,29.97,NW,309,0.0,0.0,98,0.00,,,0.00,WeatherDisplay:10.37,2013-08-09 10:39:00,
2013-08-09 05:44:00,60.3,59.7,29.97,NW,309,0.0,0.0,98,0.00,,,0.00,WeatherDisplay:10.37,2013-08-09 10:44:00,
2013-08-09 05:49:00,60.5,59.9,29.97,NW,309,0.0,0.0,98,0.00,,,0.00,WeatherDisplay:10.37,2013-08-09 10:49:00,
2013-08-09 05:54:00,60.4,59.8,29.97,West,273,0.0,0.0,98,0.00,,,0.00,WeatherDisplay:10.37,2013-08-09 10:54:00,
2013-08-09 05:59:00,60.4,59.8,29.97,West,271,0.0,0.0,98,0.00,,,0.00,WeatherDisplay:10.37,2013-08-09 10:59:00,
2013-08-09 06:04:00,60.4,59.8,29.98,West,271,0.0,0.0,98,0.00,CLR,,0.00,WeatherDisplay:10.37,2013-08-09 11:04:00,
2013-08-09 06:09:00,60.5,59.9,29.97,West,271,0.0,0.0,98,0.00,CLR,,0.00,WeatherDisplay:10.37,2013-08-09 11:09:00,
2013-08-09 06:14:00,60.6,60.0,29.97,West,272,0.0,0.0,98,0.00,CLR,,0.00,WeatherDisplay:10.37,2013-08-09 11:14:00,
2013-08-09 06:19:00,60.7,59.8,29.98,West,273,0.0,0.0,97,0.00,CLR,,0.00,WeatherDisplay:10.37,2013-08-09 11:19:00,
2013-08-09 06:25:00,60.8,59.9,29.98,West,273,0.0,0.0,97,0.00,CLR,,0.00,WeatherDisplay:10.37,2013-08-09 11:25:00,
2013-08-09 06:30:00,61.0,60.1,29.98,West,273,0.0,0.0,97,0.00,CLR,,0.00,WeatherDisplay:10.37,2013-08-09 11:30:00,
2013-08-09 06:35:00,61.3,60.4,29.98,West,274,0.0,0.0,97,0.00,CLR,,0.00,WeatherDisplay:10.37,2013-08-09 11:35:00,
2013-08-09 06:40:00,61.5,60.3,29.98,West,274,0.0,0.0,96,0.00,CLR,,0.00,WeatherDisplay:10.37,2013-08-09 11:40:00,
2013-08-09 06:45:00,61.8,60.6,29.98,West,273,0.0,0.0,96,0.00,CLR,,0.00,WeatherDisplay:10.37,2013-08-09 11:45:00,
2013-08-09 06:50:00,62.1,60.7,29.98,West,274,0.0,0.0,95,0.00,CLR,,0.00,WeatherDisplay:10.37,2013-08-09 11:50:00,
2013-08-09 06:55:00,62.4,60.7,29.98,West,274,0.0,0.0,94,0.00,CLR,,0.00,WeatherDisplay:10.37,2013-08-09 11:55:00,
2013-08-09 07:00:00,62.6,60.8,29.98,WSW,256,0.0,0.0,94,0.00,CLR,,0.00,WeatherDisplay:10.37,2013-08-09 12:00:00,
2013-08-09 07:05:00,62.8,61.0,29.99,WSW,257,0.0,0.0,94,0.00,CLR,,0.00,WeatherDisplay:10.37,2013-08-09 12:05:00,
2013-08-09 07:10:00,62.9,61.1,29.99,North,360,0.0,0.0,94,0.00,CLR,,0.00,WeatherDisplay:10.37,2013-08-09 12:10:00,
2013-08-09 07:15:00,63.1,61.0,29.98,North,360,0.0,0.0,93,0.00,CLR,,0.00,WeatherDisplay:10.37,2013-08-09 12:15:00,
2013-08-09 07:20:00,63.4,61.3,29.99,North,360,0.0,0.0,93,0.00,CLR,,0.00,WeatherDisplay:10.37,2013-08-09 12:20:00,
2013-08-09 07:25:00,63.9,61.5,29.98,North,360,0.0,0.0,92,0.00,CLR,,0.00,WeatherDisplay:10.37,2013-08-09 12:25:00,
2013-08-09 07:30:00,64.6,61.9,29.98,North,359,0.0,0.0,91,0.00,CLR,,0.00,WeatherDisplay:10.37,2013-08-09 12:30:00,
2013-08-09 07:35:00,65.6,62.9,29.99,North,359,0.0,0.0,91,0.00,CLR,,0.00,WeatherDisplay:10.37,2013-08-09 12:35:00,
2013-08-09 07:40:00,66.2,62.9,29.99,North,360,0.0,0.0,89,0.00,CLR,,0.00,WeatherDisplay:10.37,2013-08-09 12:40:00,
2013-08-09 07:46:00,66.5,62.8,29.99,North,359,0.0,0.0,88,0.00,CLR,,0.00,WeatherDisplay:10.37,2013-08-09 12:46:00,
2013-08-09 07:51:00,66.8,63.1,29.99,WSW,252,0.0,0.0,88,0.00,CLR,,0.00,WeatherDisplay:10.37,2013-08-09 12:51:00,
2013-08-09 07:56:00,67.1,63.4,29.99,SW,222,0.0,0.0,88,0.00,CLR,,0.00,WeatherDisplay:10.37,2013-08-09 12:56:00,
2013-08-09 08:01:00,67.7,64.7,29.99,WSW,248,0.0,0.0,90,0.00,CLR,,0.00,WeatherDisplay:10.37,2013-08-09 13:01:00,
2013-08-09 08:06:00,68.2,64.5,29.99,SSW,208,0.0,0.0,88,0.00,CLR,,0.00,WeatherDisplay:10.37,2013-08-09 13:06:00,
2013-08-09 08:11:00,68.6,63.9,29.99,SW,232,0.0,1.1,85,0.00,CLR,,0.00,WeatherDisplay:10.37,2013-08-09 13:11:00,
2013-08-09 08:16:00,68.9,64.5,29.99,SW,217,0.3,1.1,86,0.00,CLR,,0.00,WeatherDisplay:10.37,2013-08-09 13:16:00,
2013-08-09 08:21:00,69.3,64.3,29.99,WSW,246,0.1,2.3,84,0.00,CLR,,0.00,WeatherDisplay:10.37,2013-08-09 13:21:00,
2013-08-09 08:26:00,69.6,63.5,29.99,SW,222,0.1,1.1,81,0.00,CLR,,0.00,WeatherDisplay:10.37,2013-08-09 13:26:00,
2013-08-09 08:31:00,70.0,63.9,29.99,WSW,249,0.9,2.3,81,0.00,CLR,,0.00,WeatherDisplay:10.37,2013-08-09 13:31:00,
2013-08-09 08:36:00,70.1,63.6,29.99,WSW,251,0.5,3.5,80,0.00,CLR,,0.00,WeatherDisplay:10.37,2013-08-09 13:36:00,
2013-08-09 08:41:00,70.5,64.4,29.99,SW,228,0.1,1.1,81,0.00,CLR,,0.00,WeatherDisplay:10.37,2013-08-09 13:41:00,
2013-08-09 08:47:00,71.1,65.0,29.99,SW,231,0.1,2.3,81,0.00,CLR,,0.00,WeatherDisplay:10.37,2013-08-09 13:47:00,
2013-08-09 08:52:00,71.7,64.1,29.99,WSW,243,1.0,2.3,77,0.00,CLR,,0.00,WeatherDisplay:10.37,2013-08-09 13:52:00,
2013-08-09 08:57:00,72.1,64.5,29.99,WSW,238,1.4,5.0,77,0.00,CLR,,0.00,WeatherDisplay:10.37,2013-08-09 13:57:00,
2013-08-09 09:02:00,72.5,66.0,29.99,West,277,0.8,3.5,80,0.00,CLR,,0.00,WeatherDisplay:10.37,2013-08-09 14:02:00,
2013-08-09 09:07:00,72.8,64.8,29.99,SW,219,2.4,5.8,76,0.00,CLR,,0.00,WeatherDisplay:10.37,2013-08-09 14:07:00,
2013-08-09 09:12:00,72.6,64.2,29.99,WSW,257,1.1,3.5,75,0.00,CLR,,0.00,WeatherDisplay:10.37,2013-08-09 14:12:00,
2013-08-09 09:17:00,72.6,65.3,29.99,WSW,249,1.4,2.3,78,0.00,CLR,,0.00,WeatherDisplay:10.37,2013-08-09 14:17:00,
2013-08-09 09:22:00,72.4,64.4,29.99,WSW,255,3.2,4.6,76,0.00,CLR,,0.00,WeatherDisplay:10.37,2013-08-09 14:22:00,
2013-08-09 09:27:00,72.5,65.2,29.99,WNW,283,2.5,3.5,78,0.00,CLR,,0.00,WeatherDisplay:10.37,2013-08-09 14:27:00,
2013-08-09 09:32:00,72.6,65.0,29.99,WSW,243,1.9,3.5,77,0.00,CLR,,0.00,WeatherDisplay:10.37,2013-08-09 14:32:00,
2013-08-09 09:37:00,72.9,65.3,29.99,WSW,258,1.5,3.5,77,0.00,CLR,,0.00,WeatherDisplay:10.37,2013-08-09 14:37:00,
2013-08-09 09:42:00,72.9,65.6,29.99,West,262,2.8,3.5,78,0.00,CLR,,0.00,WeatherDisplay:10.37,2013-08-09 14:42:00,
2013-08-09 09:48:00,73.0,66.1,29.99,West,267,1.6,3.5,79,0.00,CLR,,0.00,WeatherDisplay:10.37,2013-08-09 14:48:00,
2013-08-09 09:53:00,73.3,66.0,29.99,West,259,2.8,4.6,78,0.00,CLR,,0.00,WeatherDisplay:10.37,2013-08-09 14:53:00,
2013-08-09 09:58:00,73.4,66.1,29.99,West,266,1.6,3.5,78,0.00,CLR,,0.00,WeatherDisplay:10.37,2013-08-09 14:58:00,
2013-08-09 10:03:00,73.7,66.8,29.99,West,274,1.9,3.5,79,0.00,CLR,,0.00,WeatherDisplay:10.37,2013-08-09 15:03:00,
2013-08-09 10:08:00,74.2,66.5,29.99,SW,228,1.5,2.3,77,0.00,CLR,,0.00,WeatherDisplay:10.37,2013-08-09 15:08:00,
2013-08-09 10:13:00,74.6,67.3,29.99,WSW,249,2.1,3.5,78,0.00,CLR,,0.00,WeatherDisplay:10.37,2013-08-09 15:13:00,
2013-08-09 10:18:00,74.9,67.6,29.99,WSW,255,3.0,3.5,78,0.00,CLR,,0.00,WeatherDisplay:10.37,2013-08-09 15:18:00,
2013-08-09 10:23:00,74.9,66.8,29.99,WSW,245,3.0,4.6,76,0.00,CLR,,0.00,WeatherDisplay:10.37,2013-08-09 15:23:00,
2013-08-09 10:28:00,75.2,67.9,29.99,West,267,0.8,2.3,78,0.00,CLR,,0.00,WeatherDisplay:10.37,2013-08-09 15:28:00,
2013-08-09 10:33:00,75.7,68.7,29.99,WSW,238,1.7,4.0,79,0.00,CLR,,0.00,WeatherDisplay:10.37,2013-08-09 15:33:00,
2013-08-09 10:38:00,75.8,68.4,30.00,WSW,256,1.9,3.5,78,0.00,CLR,,0.00,WeatherDisplay:10.37,2013-08-09 15:38:00,
2013-08-09 10:44:00,75.6,68.3,30.00,West,276,3.6,4.6,78,0.00,CLR,,0.00,WeatherDisplay:10.37,2013-08-09 15:44:00,
2013-08-09 10:49:00,75.6,68.6,29.99,WSW,243,1.5,2.0,79,0.00,CLR,,0.00,WeatherDisplay:10.37,2013-08-09 15:49:00,
2013-08-09 10:54:00,76.2,69.6,29.99,West,271,1.7,3.5,80,0.00,CLR,,0.00,WeatherDisplay:10.37,2013-08-09 15:54:00,
2013-08-09 10:59:00,76.4,69.0,29.99,West,277,3.5,3.5,78,0.00,CLR,,0.00,WeatherDisplay:10.37,2013-08-09 15:59:00,
2013-08-09 11:04:00,76.2,68.8,29.99,WSW,240,3.1,4.6,78,0.00,CLR,,0.00,WeatherDisplay:10.37,2013-08-09 16:04:00,
2013-08-09 11:09:00,76.5,69.5,29.99,SW,232,1.8,3.5,79,0.00,CLR,,0.00,WeatherDisplay:10.37,2013-08-09 16:09:00,
2013-08-09 11:14:00,77.0,69.6,29.99,WSW,258,1.7,2.3,78,0.00,CLR,,0.00,WeatherDisplay:10.37,2013-08-09 16:14:00,
2013-08-09 11:19:00,77.2,69.4,29.99,West,263,4.3,6.9,77,0.00,CLR,,0.00,WeatherDisplay:10.37,2013-08-09 16:19:00,
2013-08-09 11:24:00,77.1,68.9,29.99,WNW,283,2.8,4.6,76,0.00,CLR,,0.00,WeatherDisplay:10.37,2013-08-09 16:24:00,
2013-08-09 11:29:00,77.2,69.8,29.99,WSW,252,3.1,5.0,78,0.00,CLR,,0.00,WeatherDisplay:10.37,2013-08-09 16:29:00,
2013-08-09 11:35:00,77.2,69.0,29.99,West,272,3.0,6.0,76,0.00,CLR,,0.00,WeatherDisplay:10.37,2013-08-09 16:35:00,
2013-08-09 11:40:00,77.3,68.8,29.99,West,271,3.0,6.0,75,0.00,CLR,,0.00,WeatherDisplay:10.37,2013-08-09 16:40:00,
2013-08-09 11:45:00,77.4,69.2,29.99,WSW,250,2.4,3.5,76,0.00,CLR,,0.00,WeatherDisplay:10.37,2013-08-09 16:45:00,
2013-08-09 11:50:00,77.8,69.6,29.98,SW,236,2.4,4.6,76,0.00,CLR,,0.00,WeatherDisplay:10.37,2013-08-09 16:50:00,
2013-08-09 11:55:00,78.1,71.1,29.99,West,278,3.4,5.0,79,0.00,CLR,,0.00,WeatherDisplay:10.37,2013-08-09 16:55:00,
2013-08-09 12:00:00,78.0,69.4,29.99,West,260,2.2,3.5,75,0.00,CLR,,0.00,WeatherDisplay:10.37,2013-08-09 17:00:00,
2013-08-09 12:05:00,77.7,69.1,29.98,WSW,256,3.6,4.6,75,0.00,CLR,,0.00,WeatherDisplay:10.37,2013-08-09 17:05:00,
2013-08-09 12:10:00,77.6,69.4,29.98,West,266,3.5,6.0,76,0.00,CLR,,0.00,WeatherDisplay:10.37,2013-08-09 17:10:00,
2013-08-09 12:15:00,77.7,69.5,29.98,WSW,257,4.0,5.8,76,0.00,CLR,,0.00,WeatherDisplay:10.37,2013-08-09 17:15:00,
2013-08-09 12:20:00,77.9,69.3,29.98,WSW,256,3.5,4.6,75,0.00,CLR,,0.00,WeatherDisplay:10.37,2013-08-09 17:20:00,
2013-08-09 12:25:00,78.6,71.2,29.98,WSW,238,4.3,7.0,78,0.00,CLR,,0.00,WeatherDisplay:10.37,2013-08-09 17:25:00,
2013-08-09 12:30:00,78.9,69.5,29.98,West,266,2.7,5.8,73,0.00,CLR,,0.00,WeatherDisplay:10.37,2013-08-09 17:30:00,
2013-08-09 12:35:00,78.9,70.3,29.98,West,271,2.9,4.6,75,0.00,CLR,,0.00,WeatherDisplay:10.37,2013-08-09 17:35:00,
2013-08-09 12:40:00,79.3,70.7,29.98,West,281,4.6,8.0,75,0.00,CLR,,0.00,WeatherDisplay:10.37,2013-08-09 17:40:00,
2013-08-09 12:45:00,79.4,70.0,29.98,West,274,1.7,3.5,73,0.00,CLR,,0.00,WeatherDisplay:10.37,2013-08-09 17:45:00,
2013-08-09 12:50:00,79.4,69.6,29.98,WNW,287,4.2,5.0,72,0.00,CLR,,0.00,WeatherDisplay:10.37,2013-08-09 17:50:00,
2013-08-09 12:55:00,79.5,69.7,29.98,WSW,256,1.8,4.0,72,0.00,CLR,,0.00,WeatherDisplay:10.37,2013-08-09 17:55:00,
2013-08-09 13:00:00,79.2,69.4,29.98,WNW,296,2.3,3.5,72,0.00,CLR,,0.00,WeatherDisplay:10.37,2013-08-09 18:00:00,
2013-08-09 13:05:00,79.2,69.8,29.98,WNW,289,2.4,3.5,73,0.00,CLR,,0.00,WeatherDisplay:10.37,2013-08-09 18:05:00,
2013-08-09 13:10:00,79.3,70.7,29.97,WNW,284,2.0,4.6,75,0.00,CLR,,0.00,WeatherDisplay:10.37,2013-08-09 18:10:00,
2013-08-09 13:15:00,79.7,69.5,29.97,NNW,347,3.8,6.9,71,0.00,CLR,,0.00,WeatherDisplay:10.37,2013-08-09 18:15:00,
2013-08-09 13:20:00,79.7,70.3,29.97,WNW,287,1.2,2.3,73,0.00,CLR,,0.00,WeatherDisplay:10.37,2013-08-09 18:20:00,
2013-08-09 13:25:00,79.9,69.7,29.98,West,273,3.6,5.8,71,0.00,CLR,,0.00,WeatherDisplay:10.37,2013-08-09 18:25:00,
2013-08-09 13:30:00,80.5,71.4,29.98,WNW,297,3.4,3.5,74,0.00,CLR,,0.00,WeatherDisplay:10.37,2013-08-09 18:30:00,
2013-08-09 13:35:00,80.3,70.0,29.98,WSW,256,4.4,5.8,71,0.00,CLR,,0.00,WeatherDisplay:10.37,2013-08-09 18:35:00,
2013-08-09 13:40:00,80.0,68.9,29.98,West,266,3.1,4.6,69,0.00,CLR,,0.00,WeatherDisplay:10.37,2013-08-09 18:40:00,
2013-08-09 13:46:00,79.8,69.1,29.98,SW,231,3.0,3.5,70,0.00,CLR,,0.00,WeatherDisplay:10.37,2013-08-09 18:46:00,
2013-08-09 13:51:00,79.8,70.0,29.98,West,279,2.2,3.5,72,0.00,CLR,,0.00,WeatherDisplay:10.37,2013-08-09 18:51:00,
2013-08-09 13:56:00,80.6,69.5,29.98,West,269,4.3,5.8,69,0.00,CLR,,0.00,WeatherDisplay:10.37,2013-08-09 18:56:00,
2013-08-09 14:00:00,62.2,59.8,30.06,NW,315,0.0,0.0,92,0.00,CLR,,0.00,WeatherDisplay:10.37,2013-08-09 19:00:00,
2013-08-09 14:01:00,80.1,69.8,29.98,West,267,4.3,5.8,71,0.00,CLR,,0.00,WeatherDisplay:10.37,2013-08-09 19:01:00,
2013-08-09 14:05:00,62.0,59.6,30.06,NW,315,0.0,0.0,92,0.00,CLR,,0.00,WeatherDisplay:10.37,2013-08-09 19:05:00,
2013-08-09 14:06:00,80.0,70.6,29.98,WNW,285,2.7,4.6,73,0.00,CLR,,0.00,WeatherDisplay:10.37,2013-08-09 19:06:00,
2013-08-09 14:11:00,79.7,69.0,29.98,West,266,0.3,2.3,70,0.00,CLR,,0.00,WeatherDisplay:10.37,2013-08-09 19:11:00,
2013-08-09 14:16:00,79.5,69.7,29.98,WNW,294,2.9,3.5,72,0.00,CLR,,0.00,WeatherDisplay:10.37,2013-08-09 19:16:00,
2013-08-09 14:21:00,79.1,70.1,29.98,West,276,2.2,3.5,74,0.00,CLR,,0.00,WeatherDisplay:10.37,2013-08-09 19:21:00,
2013-08-09 14:26:00,79.0,69.2,29.98,West,281,3.6,4.6,72,0.00,CLR,,0.00,WeatherDisplay:10.37,2013-08-09 19:26:00,
2013-08-09 14:31:00,79.2,69.0,29.97,West,274,2.8,4.0,71,0.00,CLR,,0.00,WeatherDisplay:10.37,2013-08-09 19:31:00,
2013-08-09 14:36:00,79.5,69.7,29.97,West,270,2.2,3.5,72,0.00,CLR,,0.00,WeatherDisplay:10.37,2013-08-09 19:36:00,
2013-08-09 14:41:00,79.8,70.4,29.97,SW,229,1.5,3.5,73,0.00,CLR,,0.00,WeatherDisplay:10.37,2013-08-09 19:41:00,
2013-08-09 14:46:00,79.9,70.9,29.97,WSW,256,2.1,3.5,74,0.00,CLR,,0.00,WeatherDisplay:10.37,2013-08-09 19:46:00,
2013-08-09 14:51:00,80.1,69.8,29.97,WSW,256,3.4,4.6,71,0.00,CLR,,0.00,WeatherDisplay:10.37,2013-08-09 19:51:00,
2013-08-09 14:56:00,80.6,70.7,29.97,WSW,257,3.3,4.6,72,0.00,CLR,,0.00,WeatherDisplay:10.37,2013-08-09 19:56:00,
2013-08-09 15:01:00,80.5,69.8,29.97,SW,225,2.1,3.5,70,0.00,CLR,,0.00,WeatherDisplay:10.37,2013-08-09 20:01:00,
2013-08-09 15:06:00,80.4,70.1,29.97,West,263,3.8,5.8,71,0.00,CLR,,0.00,WeatherDisplay:10.37,2013-08-09 20:06:00,
2013-08-09 15:07:00,80.4,69.7,29.97,WSW,258,3.6,5.8,70,0.00,CLR,,0.00,WeatherDisplay:10.37,2013-08-09 20:07:00,
2013-08-09 15:12:00,79.9,69.7,29.97,West,268,3.7,4.6,71,0.00,CLR,,0.00,WeatherDisplay:10.37,2013-08-09 20:12:00,
2013-08-09 15:17:00,80.0,70.6,29.97,WSW,243,2.1,5.0,73,0.00,CLR,,0.00,WeatherDisplay:10.37,2013-08-09 20:17:00,
2013-08-09 15:22:00,79.6,69.8,29.97,WSW,257,3.5,5.8,72,0.00,CLR,,0.00,WeatherDisplay:10.37,2013-08-09 20:22:00,
2013-08-09 15:27:00,79.8,70.0,29.97,SW,236,2.4,3.5,72,0.00,CLR,,0.00,WeatherDisplay:10.37,2013-08-09 20:27:00,
2013-08-09 15:32:00,80.4,70.9,29.97,WSW,249,3.9,5.0,73,0.00,CLR,,0.00,WeatherDisplay:10.37,2013-08-09 20:32:00,
2013-08-09 15:37:00,80.2,71.2,29.97,SW,231,3.5,4.6,74,0.00,CLR,,0.00,WeatherDisplay:10.37,2013-08-09 20:37:00,
2013-08-09 15:42:00,80.2,69.9,29.97,SW,231,4.0,5.8,71,0.00,CLR,,0.00,WeatherDisplay:10.37,2013-08-09 20:42:00,
2013-08-09 15:47:00,80.2,71.2,29.97,West,279,3.9,6.0,74,0.00,CLR,,0.00,WeatherDisplay:10.37,2013-08-09 20:47:00,
2013-08-09 15:52:00,79.9,70.5,29.97,West,262,2.8,3.5,73,0.00,CLR,,0.00,WeatherDisplay:10.37,2013-08-09 20:52:00,
2013-08-09 15:57:00,79.8,70.8,29.97,WSW,252,2.8,5.8,74,0.00,CLR,,0.00,WeatherDisplay:10.37,2013-08-09 20:57:00,
2013-08-09 16:02:00,79.8,70.0,29.97,SW,228,4.2,5.8,72,0.00,CLR,,0.00,WeatherDisplay:10.37,2013-08-09 21:02:00,
2013-08-09 16:07:00,79.4,70.4,29.97,WSW,250,3.3,6.9,74,0.00,CLR,,0.00,WeatherDisplay:10.37,2013-08-09 21:07:00,
2013-08-09 16:12:00,79.0,70.4,29.97,West,260,3.1,4.6,75,0.00,CLR,,0.00,WeatherDisplay:10.37,2013-08-09 21:12:00,
2013-08-09 16:17:00,78.5,69.9,29.97,West,278,2.3,5.8,75,0.00,CLR,,0.00,WeatherDisplay:10.37,2013-08-09 21:17:00,
2013-08-09 16:22:00,77.9,70.5,29.97,NW,313,3.1,3.5,78,0.00,CLR,,0.00,WeatherDisplay:10.37,2013-08-09 21:22:00,
2013-08-09 16:27:00,76.3,69.7,29.97,NW,319,4.4,5.8,80,0.00,CLR,,0.00,WeatherDisplay:10.37,2013-08-09 21:27:00,
2013-08-09 16:32:00,74.8,70.0,29.97,NW,314,0.9,3.5,85,0.00,CLR,,0.00,WeatherDisplay:10.37,2013-08-09 21:32:00,
2013-08-09 16:38:00,74.4,70.3,29.97,WNW,302,0.1,1.1,87,0.00,CLR,,0.00,WeatherDisplay:10.37,2013-08-09 21:38:00,
2013-08-09 16:43:00,74.7,70.9,29.97,WNW,295,0.0,0.0,88,0.00,CLR,,0.00,WeatherDisplay:10.37,2013-08-09 21:43:00,
2013-08-09 16:48:00,75.7,71.6,29.96,West,274,0.0,1.1,87,0.00,CLR,,0.00,WeatherDisplay:10.37,2013-08-09 21:48:00,
2013-08-09 16:53:00,76.8,71.2,29.96,West,267,0.8,1.1,83,0.00,CLR,,0.00,WeatherDisplay:10.37,2013-08-09 21:53:00,
2013-08-09 16:58:00,77.5,71.2,29.97,West,278,2.9,4.6,81,0.00,CLR,,0.00,WeatherDisplay:10.37,2013-08-09 21:58:00,
2013-08-09 17:03:00,77.9,72.0,29.97,West,277,1.5,4.0,82,0.00,CLR,,0.00,WeatherDisplay:10.37,2013-08-09 22:03:00,
2013-08-09 17:08:00,78.0,70.2,29.97,West,278,2.0,3.5,77,0.00,CLR,,0.00,WeatherDisplay:10.37,2013-08-09 22:08:00,
2013-08-09 17:13:00,77.8,70.8,29.97,WNW,288,0.9,2.3,79,0.00,CLR,,0.00,WeatherDisplay:10.37,2013-08-09 22:13:00,
2013-08-09 17:18:00,77.5,70.5,29.96,WNW,288,1.1,2.3,79,0.00,CLR,,0.00,WeatherDisplay:10.37,2013-08-09 22:18:00,
2013-08-09 17:23:00,77.6,71.7,29.96,West,278,0.8,2.3,82,0.00,CLR,,0.00,WeatherDisplay:10.37,2013-08-09 22:23:00,
2013-08-09 17:28:00,77.6,70.9,29.96,WNW,285,1.3,2.3,80,0.00,CLR,,0.00,WeatherDisplay:10.37,2013-08-09 22:28:00,
2013-08-09 17:33:00,77.4,70.7,29.96,WNW,283,0.5,1.1,80,0.00,CLR,,0.00,WeatherDisplay:10.37,2013-08-09 22:33:00,
2013-08-09 17:38:00,77.4,71.5,29.96,WNW,297,0.0,0.0,82,0.00,CLR,,0.00,WeatherDisplay:10.37,2013-08-09 22:38:00,
2013-08-09 17:43:00,77.4,71.8,29.96,WNW,298,0.1,1.1,83,0.00,CLR,,0.00,WeatherDisplay:10.37,2013-08-09 22:43:00,
2013-08-09 17:48:00,77.5,71.9,29.96,WNW,294,0.0,0.0,83,0.00,CLR,,0.00,WeatherDisplay:10.37,2013-08-09 22:48:00,
2013-08-09 17:53:00,77.6,71.7,29.96,WNW,286,0.1,1.1,82,0.00,CLR,,0.00,WeatherDisplay:10.37,2013-08-09 22:53:00,
2013-08-09 17:58:00,77.9,71.6,29.96,West,281,0.8,1.1,81,0.00,CLR,,0.00,WeatherDisplay:10.37,2013-08-09 22:58:00,
2013-08-09 18:03:00,77.9,71.6,29.96,WNW,286,1.0,2.3,81,0.00,CLR,,0.00,WeatherDisplay:10.37,2013-08-09 23:03:00,
2013-08-09 18:08:00,77.7,71.0,29.96,WNW,284,1.2,3.5,80,0.00,CLR,,0.00,WeatherDisplay:10.37,2013-08-09 23:08:00,
2013-08-09 18:13:00,77.5,71.2,29.95,WNW,283,0.2,1.1,81,0.00,CLR,,0.00,WeatherDisplay:10.37,2013-08-09 23:13:00,
2013-08-09 18:18:00,77.6,72.0,29.95,WNW,288,0.0,1.1,83,0.00,CLR,,0.00,WeatherDisplay:10.37,2013-08-09 23:18:00,
2013-08-09 18:23:00,77.8,71.9,29.96,West,281,0.2,1.1,82,0.00,CLR,,0.00,WeatherDisplay:10.37,2013-08-09 23:23:00,
2013-08-09 18:28:00,77.7,71.8,29.96,WNW,287,0.4,1.1,82,0.00,CLR,,0.00,WeatherDisplay:10.37,2013-08-09 23:28:00,
2013-08-09 18:33:00,77.7,72.1,29.96,WNW,284,0.2,1.1,83,0.00,CLR,,0.00,WeatherDisplay:10.37,2013-08-09 23:33:00,
2013-08-09 18:38:00,77.5,71.9,29.96,WNW,290,0.0,1.1,83,0.00,CLR,,0.00,WeatherDisplay:10.37,2013-08-09 23:38:00,
2013-08-09 18:43:00,77.4,71.8,29.96,NW,311,0.4,2.3,83,0.00,CLR,,0.00,WeatherDisplay:10.37,2013-08-09 23:43:00,
2013-08-09 18:48:00,77.1,71.5,29.96,NW,323,0.3,1.1,83,0.00,CLR,,0.00,WeatherDisplay:10.37,2013-08-09 23:48:00,
2013-08-09 18:53:00,76.9,71.7,29.96,NNW,334,0.0,1.1,84,0.00,CLR,,0.00,WeatherDisplay:10.37,2013-08-09 23:53:00,
2013-08-09 18:58:00,76.5,71.3,29.96,NW,319,0.2,1.1,84,0.00,CLR,,0.00,WeatherDisplay:10.37,2013-08-09 23:58:00,
2013-08-09 19:03:00,76.2,71.0,29.97,North,356,0.1,1.1,84,0.00,CLR,,0.00,WeatherDisplay:10.37,2013-08-10 00:03:00,
2013-08-09 19:08:00,75.9,71.1,29.97,North,349,0.1,1.1,85,0.00,CLR,,0.00,WeatherDisplay:10.37,2013-08-10 00:08:00,
2013-08-09 19:13:00,75.6,71.1,29.97,NNE,14,0.0,0.0,86,0.00,CLR,,0.00,WeatherDisplay:10.37,2013-08-10 00:13:00,
2013-08-09 19:18:00,75.3,70.5,29.97,North,8,0.1,1.1,85,0.00,CLR,,0.00,WeatherDisplay:10.37,2013-08-10 00:18:00,
2013-08-09 19:23:00,75.2,70.0,29.97,NNW,342,0.1,1.1,84,0.00,CLR,,0.00,WeatherDisplay:10.37,2013-08-10 00:23:00,
2013-08-09 19:28:00,75.1,70.3,29.97,NNW,340,0.2,1.1,85,0.00,CLR,,0.00,WeatherDisplay:10.37,2013-08-10 00:28:00,
2013-08-09 19:33:00,74.9,70.1,29.97,NNW,339,0.0,1.0,85,0.00,CLR,,0.00,WeatherDisplay:10.37,2013-08-10 00:33:00,
2013-08-09 19:38:00,74.7,69.9,29.98,NNW,328,0.0,0.0,85,0.00,CLR,,0.00,WeatherDisplay:10.37,2013-08-10 00:38:00,
2013-08-09 19:43:00,74.4,69.9,29.97,NNW,328,0.0,0.0,86,0.00,CLR,,0.00,WeatherDisplay:10.37,2013-08-10 00:43:00,
2013-08-09 19:48:00,74.0,69.9,29.98,NNW,328,0.0,0.0,87,0.00,CLR,,0.00,WeatherDisplay:10.37,2013-08-10 00:48:00,
2013-08-09 19:53:00,73.6,69.8,29.97,NNW,328,0.0,0.0,88,0.00,CLR,,0.00,WeatherDisplay:10.37,2013-08-10 00:53:00,
2013-08-09 19:58:00,73.3,69.5,29.97,NNW,335,0.0,0.0,88,0.00,CLR,,0.00,WeatherDisplay:10.37,2013-08-10 00:58:00,
2013-08-09 20:03:00,73.1,69.3,29.98,NNW,330,0.0,0.0,88,0.00,CLR,,0.00,WeatherDisplay:10.37,2013-08-10 01:03:00,
2013-08-09 20:08:00,72.9,69.1,29.98,NNW,332,0.0,0.0,88,0.00,CLR,,0.00,WeatherDisplay:10.37,2013-08-10 01:08:00,
2013-08-09 20:13:00,72.6,69.2,29.98,NNW,332,0.0,0.0,89,0.00,CLR,,0.00,WeatherDisplay:10.37,2013-08-10 01:13:00,
2013-08-09 20:18:00,72.0,68.6,29.98,NNW,330,0.0,0.0,89,0.00,CLR,,0.00,WeatherDisplay:10.37,2013-08-10 01:18:00,
2013-08-09 20:23:00,71.6,68.5,29.99,NW,324,0.0,0.0,90,0.00,CLR,,0.00,WeatherDisplay:10.37,2013-08-10 01:23:00,
2013-08-09 20:28:00,71.4,68.3,29.99,NW,324,0.0,0.0,90,0.00,CLR,,0.00,WeatherDisplay:10.37,2013-08-10 01:28:00,
2013-08-09 20:33:00,71.3,68.2,29.99,NW,324,0.0,0.0,90,0.00,CLR,,0.00,WeatherDisplay:10.37,2013-08-10 01:33:00,
2013-08-09 20:38:00,71.1,68.0,29.99,NW,325,0.0,0.0,90,0.00,CLR,,0.00,WeatherDisplay:10.37,2013-08-10 01:38:00,
2013-08-09 20:43:00,70.7,67.9,29.99,NW,321,0.0,0.0,91,0.00,,,0.00,WeatherDisplay:10.37,2013-08-10 01:43:00,
2013-08-09 20:48:00,70.5,67.7,29.99,NNW,330,0.0,0.0,91,0.00,,,0.00,WeatherDisplay:10.37,2013-08-10 01:48:00,
2013-08-09 20:53:00,70.4,67.6,29.99,NNW,336,0.0,1.1,91,0.00,,,0.00,WeatherDisplay:10.37,2013-08-10 01:53:00,
2013-08-09 20:59:00,70.4,67.6,30.00,NW,324,0.1,1.1,91,0.00,,,0.00,WeatherDisplay:10.37,2013-08-10 01:59:00,
2013-08-09 21:04:00,70.4,67.3,30.00,NNW,333,0.1,1.1,90,0.00,,,0.00,WeatherDisplay:10.37,2013-08-10 02:04:00,
2013-08-09 21:09:00,70.4,67.3,30.00,NNW,330,0.1,1.1,90,0.00,,,0.00,WeatherDisplay:10.37,2013-08-10 02:09:00,
2013-08-09 21:14:00,70.4,67.3,30.00,NNW,347,0.0,0.0,90,0.00,,,0.00,WeatherDisplay:10.37,2013-08-10 02:14:00,
2013-08-09 21:19:00,70.2,67.1,30.00,NW,325,0.1,1.1,90,0.00,,,0.00,WeatherDisplay:10.37,2013-08-10 02:19:00,
2013-08-09 21:24:00,69.9,66.8,30.01,NW,319,0.0,0.0,90,0.00,,,0.00,WeatherDisplay:10.37,2013-08-10 02:24:00,
2013-08-09 21:29:00,69.5,66.8,30.00,NW,320,0.0,0.0,91,0.00,,,0.00,WeatherDisplay:10.37,2013-08-10 02:29:00,
2013-08-09 21:34:00,69.3,66.9,30.00,NNW,334,0.0,1.1,92,0.00,,,0.00,WeatherDisplay:10.37,2013-08-10 02:34:00,
2013-08-09 21:39:00,69.1,66.7,30.01,NW,307,0.0,0.0,92,0.00,,,0.00,WeatherDisplay:10.37,2013-08-10 02:39:00,
2013-08-09 21:44:00,68.8,66.1,30.01,NW,307,0.0,0.0,91,0.00,,,0.00,WeatherDisplay:10.37,2013-08-10 02:44:00,
2013-08-09 21:49:00,68.4,66.0,30.01,NW,307,0.0,0.0,92,0.00,,,0.00,WeatherDisplay:10.37,2013-08-10 02:49:00,
2013-08-09 21:54:00,68.1,65.7,30.01,NW,307,0.0,0.0,92,0.00,,,0.00,WeatherDisplay:10.37,2013-08-10 02:54:00,
2013-08-09 21:59:00,68.0,65.6,30.01,NW,307,0.0,0.0,92,0.00,,,0.00,WeatherDisplay:10.37,2013-08-10 02:59:00,
2013-08-09 22:04:00,68.0,65.6,30.01,NW,309,0.0,0.0,92,0.00,CLR,,0.00,WeatherDisplay:10.37,2013-08-10 03:04:00,
2013-08-09 22:09:00,68.1,65.1,30.01,NW,317,0.0,0.0,90,0.00,CLR,,0.00,WeatherDisplay:10.37,2013-08-10 03:09:00,
2013-08-09 22:14:00,68.0,64.6,30.02,NNW,340,0.2,1.1,89,0.00,CLR,,0.00,WeatherDisplay:10.37,2013-08-10 03:14:00,
2013-08-09 22:19:00,68.0,64.6,30.02,NNW,336,0.1,1.1,89,0.00,CLR,,0.00,WeatherDisplay:10.37,2013-08-10 03:19:00,
2013-08-09 22:24:00,67.9,64.2,30.02,NNW,330,0.0,0.0,88,0.00,CLR,,0.00,WeatherDisplay:10.37,2013-08-10 03:24:00,
2013-08-09 22:29:00,67.7,64.0,30.02,NNW,328,0.0,0.0,88,0.00,CLR,,0.00,WeatherDisplay:10.37,2013-08-10 03:29:00,
2013-08-09 22:34:00,67.3,63.6,30.02,NNW,329,0.0,1.1,88,0.00,CLR,,0.00,WeatherDisplay:10.37,2013-08-10 03:34:00,
2013-08-09 22:39:00,67.0,63.3,30.02,NW,314,0.0,0.0,88,0.00,CLR,,0.00,WeatherDisplay:10.37,2013-08-10 03:39:00,
2013-08-09 22:44:00,66.8,63.1,30.03,NW,315,0.0,0.0,88,0.00,CLR,,0.00,WeatherDisplay:10.37,2013-08-10 03:44:00,
2013-08-09 22:49:00,66.5,63.2,30.02,NW,314,0.0,0.0,89,0.00,CLR,,0.00,WeatherDisplay:10.37,2013-08-10 03:49:00,
2013-08-09 22:54:00,66.1,62.8,30.03,NW,315,0.0,0.0,89,0.00,CLR,,0.00,WeatherDisplay:10.37,2013-08-10 03:54:00,
2013-08-09 22:59:00,65.6,62.6,30.03,WNW,290,0.0,0.0,90,0.00,CLR,,0.00,WeatherDisplay:10.37,2013-08-10 03:59:00,
2013-08-09 23:01:00,65.4,62.4,30.03,WNW,291,0.0,0.0,90,0.00,CLR,,0.00,WeatherDisplay:10.37,2013-08-10 04:01:00,
2013-08-09 23:02:00,65.3,62.3,30.03,WNW,291,0.0,0.0,90,0.00,CLR,,0.00,WeatherDisplay:10.37,2013-08-10 04:02:00,
2013-08-09 23:07:00,65.0,62.3,30.03,WNW,291,0.0,0.0,91,0.00,CLR,,0.00,WeatherDisplay:10.37,2013-08-10 04:07:00,
2013-08-09 23:12:00,64.8,62.1,30.03,WNW,291,0.0,0.0,91,0.00,CLR,,0.00,WeatherDisplay:10.37,2013-08-10 04:12:00,
2013-08-09 23:17:00,64.6,62.2,30.03,WNW,291,0.0,0.0,92,0.00,CLR,,0.00,WeatherDisplay:10.37,2013-08-10 04:17:00,
2013-08-09 23:22:00,64.4,62.0,30.03,WNW,291,0.0,0.0,92,0.00,CLR,,0.00,WeatherDisplay:10.37,2013-08-10 04:22:00,
2013-08-09 23:27:00,64.4,62.0,30.03,WNW,291,0.0,0.0,92,0.00,CLR,,0.00,WeatherDisplay:10.37,2013-08-10 04:27:00,
2013-08-09 23:32:00,64.4,61.7,30.04,WNW,291,0.0,0.0,91,0.00,CLR,,0.00,WeatherDisplay:10.37,2013-08-10 04:32:00,
2013-08-09 23:37:00,64.5,61.8,30.04,WNW,292,0.0,0.0,91,0.00,CLR,,0.00,WeatherDisplay:10.37,2013-08-10 04:37:00,
2013-08-09 23:42:00,64.4,61.7,30.04,WNW,293,0.0,0.0,91,0.00,CLR,,0.00,WeatherDisplay:10.37,2013-08-10 04:42:00,
2013-08-09 23:47:00,64.6,61.9,30.04,WNW,295,0.0,0.0,91,0.00,CLR,,0.00,WeatherDisplay:10.37,2013-08-10 04:47:00,
2013-08-09 23:52:00,64.9,61.9,30.04,WNW,295,0.0,0.0,90,0.00,CLR,,0.00,WeatherDisplay:10.37,2013-08-10 04:52:00,
2013-08-09 23:57:00,65.0,62.0,30.04,WNW,300,0.0,0.0,90,0.00,CLR,,0.00,WeatherDisplay:10.37,2013-08-10 04:57:00,